Flight Briefing for CPX302

Departure Arrival
Daniel K Inouye International Airport (PHNL)
Click to view FAA NOTAMS
Guam International Airport (PGUM)
Click to view FAA NOTAMS
Departure Time Arrival Time
N/A N/A
Aircraft Distance
B767-300BDSF 3303nm
Departure METAR Arrival METAR
PHNL 190753Z 07011G16KT 10SM FEW029 SCT045 23/13 A3009 RMK AO2 SLP189 T02280133 PGUM 190754Z 08013KT 10SM FEW029 28/22 A2987 RMK AO2 SLP107 T02780217
Suggested Route
KEOLA2 NONNI BRIUN 2000N/17000W 1800N/18000E 1600N/17000E 1500N/16000E 1500N/15000E DEWSS


View recent IFR Routes data
Notes



Charts and Procedures

Charts for PHNL
No chart available
Charts for PGUM
No chart available

Windy.com Weather Map